createdAt,value
2023-01-18T00:01:25.178Z,716.33
2023-01-18T00:03:53.764Z,730.23
2023-01-18T00:06:22.270Z,193.03
2023-01-18T00:08:50.746Z,177.53
2023-01-18T00:11:19.381Z,340.20
2023-01-18T00:13:48.488Z,59.60
2023-01-18T00:16:19.496Z,37.20
2023-01-18T00:18:54.509Z,40.07
2023-01-18T00:21:23.506Z,41.50
2023-01-18T00:23:52.069Z,36.20
2023-01-18T00:26:20.891Z,33.97
2023-01-18T00:28:49.379Z,35.17
2023-01-18T00:31:20.758Z,35.77
2023-01-18T00:33:51.158Z,33.10
2023-01-18T00:36:21.594Z,35.63
2023-01-18T00:38:52.586Z,39.70
2023-01-18T00:41:21.443Z,38.37
2023-01-18T00:43:49.327Z,36.50
2023-01-18T00:46:21.279Z,41.27
2023-01-18T00:48:50.109Z,37.17
2023-01-18T00:51:22.411Z,35.33
2023-01-18T00:53:51.074Z,37.50
2023-01-18T00:56:22.188Z,38.33
2023-01-18T00:58:51.042Z,38.97
2023-01-18T01:01:19.773Z,37.77
2023-01-18T01:04:05.694Z,40.23
2023-01-18T01:06:46.778Z,40.37
2023-01-18T01:09:18.444Z,35.93
2023-01-18T01:12:01.516Z,41.40
2023-01-18T01:14:47.597Z,52.67
2023-01-18T01:17:33.509Z,47.70
2023-01-18T01:20:19.101Z,40.23
2023-01-18T01:23:05.916Z,35.40
2023-01-18T01:25:51.880Z,31.77
2023-01-18T01:28:20.283Z,33.93
2023-01-18T01:30:48.950Z,32.20
2023-01-18T01:33:19.583Z,35.30
2023-01-18T01:35:48.062Z,47.30
2023-01-18T01:38:17.976Z,39.83
2023-01-18T01:40:46.431Z,37.90
2023-01-18T01:43:15.225Z,32.80
2023-01-18T01:45:43.787Z,38.10
2023-01-18T01:48:12.878Z,35.23
2023-01-18T01:50:42.072Z,36.30
2023-01-18T01:53:12.556Z,32.27
2023-01-18T01:55:43.145Z,33.07
2023-01-18T01:58:15.159Z,33.03
2023-01-18T02:00:44.549Z,35.70
2023-01-18T02:03:16.145Z,39.37
2023-01-18T02:05:47.223Z,42.17
2023-01-18T02:08:22.885Z,38.40
2023-01-18T02:10:53.793Z,41.63
2023-01-18T02:13:24.359Z,36.47
2023-01-18T02:16:01.232Z,42.80
2023-01-18T02:18:35.245Z,37.37
2023-01-18T02:21:17.382Z,37.23
2023-01-18T02:24:11.297Z,38.13
2023-01-18T02:26:58.655Z,34.23
2023-01-18T02:29:54.478Z,36.17
2023-01-18T02:32:32.664Z,35.57
2023-01-18T02:35:11.139Z,38.20
2023-01-18T02:37:47.607Z,34.73
2023-01-18T02:40:23.988Z,42.17
2023-01-18T02:43:21.595Z,38.13
2023-01-18T02:46:09.073Z,40.33
2023-01-18T02:48:40.891Z,40.50
2023-01-18T02:51:09.479Z,40.83
2023-01-18T02:53:40.342Z,35.57
2023-01-18T02:56:13.109Z,39.63
2023-01-18T02:58:46.100Z,50.17
2023-01-18T03:01:22.588Z,52.93
2023-01-18T03:03:52.915Z,55.00
2023-01-18T03:06:25.192Z,48.53
2023-01-18T03:08:55.525Z,41.97
2023-01-18T03:11:31.362Z,46.30
2023-01-18T03:14:09.286Z,46.47
2023-01-18T03:16:58.732Z,45.40
2023-01-18T03:19:57.491Z,41.63
2023-01-18T03:22:42.149Z,46.47
2023-01-18T03:25:14.443Z,46.40
2023-01-18T03:28:03.904Z,46.50
2023-01-18T03:30:52.295Z,55.33
2023-01-18T03:33:45.918Z,49.60
2023-01-18T03:36:19.699Z,45.47
2023-01-18T03:38:51.471Z,44.00
2023-01-18T03:41:21.801Z,45.93
2023-01-18T03:43:53.875Z,44.50
2023-01-18T03:46:25.132Z,48.53
2023-01-18T03:48:55.218Z,43.07
2023-01-18T03:51:30.070Z,50.37
2023-01-18T03:54:06.440Z,49.13
2023-01-18T03:56:40.571Z,51.17
2023-01-18T03:59:10.342Z,48.67
2023-01-18T04:01:39.145Z,52.20
2023-01-18T04:04:09.104Z,47.67
2023-01-18T04:06:38.083Z,46.00
2023-01-18T04:09:06.667Z,43.57
2023-01-18T04:11:35.228Z,45.07
2023-01-18T04:14:03.670Z,44.50
2023-01-18T04:16:32.201Z,42.70
2023-01-18T04:19:00.734Z,40.33
2023-01-18T04:21:30.634Z,51.90
2023-01-18T04:23:59.141Z,43.70
2023-01-18T04:26:27.656Z,40.93
2023-01-18T04:28:56.218Z,48.50
2023-01-18T04:31:24.669Z,43.27
2023-01-18T04:33:53.275Z,42.37
2023-01-18T04:36:22.554Z,44.70
2023-01-18T04:38:55.707Z,45.40
2023-01-18T04:41:24.649Z,41.73
2023-01-18T04:43:53.210Z,43.50
2023-01-18T04:46:21.732Z,45.90
2023-01-18T04:48:53.607Z,43.23
2023-01-18T04:51:24.144Z,40.87
2023-01-18T04:53:52.746Z,48.70
2023-01-18T04:56:23.199Z,47.87
2023-01-18T04:58:54.221Z,48.37
2023-01-18T05:01:23.484Z,47.97
2023-01-18T05:03:53.677Z,42.50
2023-01-18T05:06:22.155Z,48.43
2023-01-18T05:08:51.219Z,45.33
2023-01-18T05:11:23.411Z,43.70
2023-01-18T05:13:51.957Z,40.90
2023-01-18T05:16:22.565Z,40.23
2023-01-18T05:18:51.200Z,44.03
2023-01-18T05:21:19.606Z,39.43
2023-01-18T05:23:48.082Z,42.17
2023-01-18T05:26:19.013Z,36.97
2023-01-18T05:28:49.131Z,35.20
2023-01-18T05:31:21.443Z,40.67
2023-01-18T05:33:50.325Z,36.33
2023-01-18T05:36:18.859Z,40.30
2023-01-18T05:38:48.402Z,47.33
2023-01-18T05:41:16.824Z,52.40
2023-01-18T05:43:45.229Z,61.50
2023-01-18T05:46:15.196Z,70.93
2023-01-18T05:48:43.671Z,74.90
2023-01-18T05:51:12.792Z,66.33
2023-01-18T05:53:41.483Z,61.10
2023-01-18T05:56:10.507Z,51.23
2023-01-18T05:58:39.383Z,48.10
2023-01-18T06:01:08.934Z,44.40
2023-01-18T06:03:38.926Z,43.67
2023-01-18T06:06:09.037Z,45.23
2023-01-18T06:08:37.618Z,45.27
2023-01-18T06:11:06.712Z,42.43
2023-01-18T06:13:35.446Z,43.23
2023-01-18T06:16:06.730Z,42.53
2023-01-18T06:18:35.694Z,44.47
2023-01-18T06:21:05.892Z,40.07
2023-01-18T06:23:35.592Z,36.17
2023-01-18T06:26:03.998Z,36.27
2023-01-18T06:28:32.453Z,34.40
2023-01-18T06:31:04.936Z,33.60
2023-01-18T06:33:33.454Z,30.63
2023-01-18T06:36:02.320Z,27.70
2023-01-18T06:38:32.347Z,30.27
2023-01-18T06:41:00.948Z,32.73
2023-01-18T06:43:29.613Z,28.57
2023-01-18T06:45:58.529Z,33.53
2023-01-18T06:48:28.749Z,32.03
2023-01-18T06:50:58.903Z,29.47
2023-01-18T06:53:28.165Z,29.83
2023-01-18T06:55:59.630Z,31.33
2023-01-18T06:58:30.358Z,26.30
2023-01-18T07:01:00.016Z,31.57
2023-01-18T07:03:29.695Z,27.77
2023-01-18T07:06:00.366Z,29.50
2023-01-18T07:08:31.197Z,28.20
2023-01-18T07:11:05.129Z,28.53
2023-01-18T07:13:33.685Z,27.60
2023-01-18T07:16:03.306Z,29.33
2023-01-18T07:18:32.392Z,28.37
2023-01-18T07:21:02.676Z,31.37
2023-01-18T07:23:31.927Z,28.53
2023-01-18T07:26:03.483Z,29.77
2023-01-18T07:28:33.195Z,29.67
2023-01-18T07:31:06.423Z,25.33
2023-01-18T07:33:34.969Z,26.33
2023-01-18T07:36:06.551Z,26.90
2023-01-18T07:38:36.348Z,26.70
2023-01-18T07:41:08.618Z,32.17
2023-01-18T07:43:38.112Z,25.07
2023-01-18T07:46:08.172Z,24.40
2023-01-18T07:48:38.873Z,25.10
2023-01-18T07:51:09.784Z,23.83
2023-01-18T07:53:39.529Z,24.17
2023-01-18T07:56:12.524Z,24.83
2023-01-18T07:58:41.491Z,28.83
2023-01-18T08:01:12.147Z,32.87
2023-01-18T08:03:40.963Z,32.30
2023-01-18T08:06:10.170Z,32.03
2023-01-18T08:08:39.071Z,32.37
2023-01-18T08:11:09.568Z,29.37
2023-01-18T08:13:38.091Z,28.63
2023-01-18T08:16:09.203Z,25.27
2023-01-18T08:18:37.791Z,23.33
2023-01-18T08:21:06.434Z,27.33
2023-01-18T08:23:34.992Z,26.23
2023-01-18T08:26:04.007Z,26.53
2023-01-18T08:28:34.060Z,27.20
2023-01-18T08:31:11.850Z,26.13
2023-01-18T08:33:42.646Z,34.03
2023-01-18T08:36:12.203Z,30.87
2023-01-18T08:38:41.471Z,28.80
2023-01-18T08:41:10.396Z,29.73
2023-01-18T08:43:40.362Z,32.87
2023-01-18T08:46:09.086Z,31.33
2023-01-18T08:48:37.643Z,31.73
2023-01-18T08:51:06.878Z,29.33
2023-01-18T08:53:35.447Z,37.00
2023-01-18T08:56:06.600Z,32.60
2023-01-18T08:58:35.594Z,28.03
2023-01-18T09:01:08.714Z,28.97
2023-01-18T09:03:38.034Z,28.07
2023-01-18T09:06:12.523Z,27.23
2023-01-18T09:08:41.420Z,26.87
2023-01-18T09:11:11.962Z,26.50
2023-01-18T09:13:54.600Z,28.97
2023-01-18T09:16:30.238Z,28.57
2023-01-18T09:18:58.850Z,26.93
2023-01-18T09:21:29.044Z,25.77
2023-01-18T09:23:58.183Z,27.00
2023-01-18T09:26:27.981Z,27.77
2023-01-18T09:28:56.445Z,29.43
2023-01-18T09:31:27.685Z,32.00
2023-01-18T09:34:13.182Z,28.63
2023-01-18T09:36:46.351Z,29.93
2023-01-18T09:39:14.915Z,31.87
2023-01-18T09:41:47.205Z,30.97
2023-01-18T09:44:22.386Z,35.27
2023-01-18T09:46:54.873Z,33.23
2023-01-18T09:49:31.686Z,34.80
2023-01-18T09:52:19.696Z,32.27
2023-01-18T09:54:53.842Z,33.90
2023-01-18T09:57:38.182Z,31.63
2023-01-18T10:00:19.980Z,33.30
2023-01-18T10:02:51.972Z,32.77
2023-01-18T10:05:25.674Z,35.93
2023-01-18T10:08:04.097Z,31.37
2023-01-18T10:10:39.265Z,34.10
2023-01-18T10:13:47.932Z,31.97
2023-01-18T10:16:16.822Z,31.23
2023-01-18T10:18:51.549Z,30.33
2023-01-18T10:21:28.295Z,31.43
2023-01-18T10:24:27.907Z,28.30
2023-01-18T10:27:05.645Z,31.17
2023-01-18T10:29:46.772Z,29.83
2023-01-18T10:32:20.225Z,30.73
2023-01-18T10:34:51.847Z,35.57
2023-01-18T10:37:31.274Z,27.33
2023-01-18T10:40:02.641Z,28.93
2023-01-18T10:42:39.967Z,31.10
2023-01-18T10:45:20.440Z,33.57
2023-01-18T10:47:49.476Z,27.10
2023-01-18T10:50:20.476Z,26.40
2023-01-18T10:52:51.005Z,24.83
2023-01-18T10:55:21.288Z,25.20
2023-01-18T10:57:52.220Z,25.50
2023-01-18T11:00:23.555Z,31.77
2023-01-18T11:02:54.724Z,27.93
2023-01-18T11:05:30.485Z,31.47
2023-01-18T11:08:24.431Z,30.30
2023-01-18T11:11:04.811Z,26.07
2023-01-18T11:13:42.652Z,25.33
2023-01-18T11:16:18.307Z,24.70
2023-01-18T11:19:03.302Z,28.87
2023-01-18T11:21:46.087Z,32.60
2023-01-18T11:24:20.886Z,41.37
2023-01-18T11:26:56.910Z,40.43
2023-01-18T11:29:28.928Z,39.20
2023-01-18T11:32:02.401Z,45.33
2023-01-18T11:34:33.175Z,40.30
2023-01-18T11:37:02.768Z,36.17
2023-01-18T11:39:34.873Z,40.53
2023-01-18T11:42:30.524Z,33.90
2023-01-18T11:45:14.416Z,32.80
2023-01-18T11:47:55.555Z,34.57
2023-01-18T11:50:35.972Z,34.60
2023-01-18T11:53:16.674Z,28.73
2023-01-18T11:55:56.265Z,27.57
2023-01-18T11:58:28.975Z,21.27
2023-01-18T12:01:12.436Z,21.47
2023-01-18T12:03:53.654Z,21.67
2023-01-18T12:06:29.787Z,20.00
2023-01-18T12:09:09.959Z,26.60
2023-01-18T12:11:53.762Z,25.63
2023-01-18T12:14:36.114Z,28.00
2023-01-18T12:17:28.534Z,32.07
2023-01-18T12:20:06.209Z,28.53
2023-01-18T12:23:16.198Z,26.47
2023-01-18T12:26:12.565Z,22.03
2023-01-18T12:29:00.710Z,21.83
2023-01-18T12:31:51.035Z,25.50
2023-01-18T12:34:24.681Z,20.47
2023-01-18T12:37:09.782Z,19.97
2023-01-18T12:39:54.387Z,20.80
2023-01-18T12:42:35.828Z,25.37
2023-01-18T12:45:23.277Z,19.93
2023-01-18T12:48:02.090Z,23.77
2023-01-18T12:50:36.915Z,23.73
2023-01-18T12:53:12.421Z,23.87
2023-01-18T12:55:44.619Z,22.30
2023-01-18T12:58:20.431Z,21.80
2023-01-18T13:00:55.931Z,22.43
2023-01-18T13:03:30.679Z,19.00
2023-01-18T13:06:02.359Z,19.50
2023-01-18T13:08:44.594Z,24.47
2023-01-18T13:11:17.484Z,32.80
2023-01-18T13:13:46.994Z,54.07
2023-01-18T13:16:37.989Z,45.53
2023-01-18T13:19:10.228Z,39.93
2023-01-18T13:21:46.479Z,30.30
2023-01-18T13:24:28.565Z,55.13
2023-01-18T13:27:08.281Z,58.57
2023-01-18T13:29:36.952Z,75.57
2023-01-18T13:32:27.971Z,36.97
2023-01-18T13:35:19.013Z,20.50
2023-01-18T13:37:50.753Z,18.23
2023-01-18T13:40:29.021Z,19.97
2023-01-18T13:42:57.616Z,18.17
2023-01-18T13:45:27.628Z,18.03
2023-01-18T13:48:04.005Z,19.93
2023-01-18T13:50:52.481Z,17.17
2023-01-18T13:53:31.424Z,21.37
2023-01-18T13:56:28.510Z,43.33
2023-01-18T13:59:02.897Z,55.77
2023-01-18T14:01:35.601Z,50.33
2023-01-18T14:04:21.839Z,35.03
2023-01-18T14:06:51.400Z,30.20
2023-01-18T14:09:30.165Z,30.40
2023-01-18T14:11:59.861Z,29.47
2023-01-18T14:14:31.425Z,24.97
2023-01-18T14:17:06.375Z,23.37
2023-01-18T14:20:01.382Z,21.87
2023-01-18T14:22:45.686Z,22.17
2023-01-18T14:25:52.772Z,19.97
2023-01-18T14:28:27.845Z,21.40
2023-01-18T14:30:58.786Z,18.70
2023-01-18T14:33:31.339Z,23.67
2023-01-18T14:36:02.337Z,20.83
2023-01-18T14:38:31.988Z,23.73
2023-01-18T14:41:07.386Z,24.20
2023-01-18T14:43:38.456Z,25.53
2023-01-18T14:46:09.784Z,22.73
2023-01-18T14:48:47.738Z,22.07
2023-01-18T14:51:22.436Z,21.93
2023-01-18T14:53:54.312Z,25.27
2023-01-18T14:56:24.803Z,23.97
2023-01-18T14:58:55.610Z,29.67
2023-01-18T15:01:33.341Z,34.43
2023-01-18T15:04:03.491Z,30.73
2023-01-18T15:06:41.762Z,29.03
2023-01-18T15:09:13.385Z,40.53
2023-01-18T15:11:44.021Z,40.93
2023-01-18T15:14:17.936Z,37.67
2023-01-18T15:16:48.420Z,37.50
2023-01-18T15:19:20.502Z,49.70
2023-01-18T15:21:50.938Z,52.43
2023-01-18T15:24:21.013Z,56.93
2023-01-18T15:26:53.307Z,57.77
2023-01-18T15:29:26.069Z,42.67
2023-01-18T15:31:56.792Z,36.00
2023-01-18T15:34:29.962Z,31.17
2023-01-18T15:37:01.737Z,40.53
2023-01-18T15:39:32.685Z,49.37
2023-01-18T15:42:07.339Z,46.03
2023-01-18T15:44:41.899Z,36.93
2023-01-18T15:47:22.525Z,43.53
2023-01-18T15:49:53.162Z,46.47
2023-01-18T15:52:42.661Z,53.70
2023-01-18T15:55:21.611Z,57.50
2023-01-18T15:58:01.330Z,45.83
2023-01-18T16:00:33.534Z,70.03
2023-01-18T16:03:03.745Z,82.30
2023-01-18T16:05:33.728Z,69.67
2023-01-18T16:08:19.548Z,81.37
2023-01-18T16:10:54.365Z,77.73
2023-01-18T16:13:24.412Z,80.67
2023-01-18T16:16:19.010Z,90.50
2023-01-18T16:18:51.253Z,101.40
2023-01-18T16:21:27.872Z,91.57
2023-01-18T16:23:58.839Z,71.43
2023-01-18T16:26:31.866Z,91.20
2023-01-18T16:29:08.295Z,89.10
2023-01-18T16:31:40.556Z,74.13
2023-01-18T16:34:20.872Z,76.97
2023-01-18T16:36:50.189Z,55.13
2023-01-18T16:39:20.291Z,49.10
2023-01-18T16:41:57.828Z,43.23
2023-01-18T16:44:28.111Z,35.90
2023-01-18T16:46:56.511Z,34.13
2023-01-18T16:49:24.925Z,30.50
2023-01-18T16:51:53.583Z,29.33
2023-01-18T16:54:23.730Z,32.57
2023-01-18T16:56:52.180Z,33.77
2023-01-18T16:59:23.126Z,37.33
2023-01-18T17:01:51.912Z,33.57
2023-01-18T17:04:20.411Z,38.07
2023-01-18T17:06:48.895Z,36.87
2023-01-18T17:09:25.053Z,36.90
2023-01-18T17:11:54.059Z,41.30
2023-01-18T17:14:23.458Z,50.43
2023-01-18T17:16:51.981Z,44.63
2023-01-18T17:19:22.382Z,46.93
2023-01-18T17:21:51.798Z,57.43
2023-01-18T17:24:25.625Z,109.57
2023-01-18T17:26:55.612Z,102.33
2023-01-18T17:29:24.049Z,89.67
2023-01-18T17:31:53.275Z,80.00
2023-01-18T17:34:28.313Z,56.03
2023-01-18T17:36:58.273Z,52.77
2023-01-18T17:39:42.547Z,53.53
2023-01-18T17:42:29.252Z,54.97
2023-01-18T17:45:04.127Z,64.53
2023-01-18T17:47:34.605Z,74.93
2023-01-18T17:50:09.155Z,90.27
2023-01-18T17:52:38.958Z,80.63
2023-01-18T17:55:09.807Z,61.10
2023-01-18T17:57:39.869Z,61.50
2023-01-18T18:00:12.080Z,52.63
2023-01-18T18:02:40.885Z,58.33
2023-01-18T18:05:10.389Z,63.50
2023-01-18T18:07:39.149Z,69.50
2023-01-18T18:10:08.760Z,57.27
2023-01-18T18:12:37.645Z,59.03
2023-01-18T18:15:08.826Z,61.47
2023-01-18T18:17:37.858Z,66.73
2023-01-18T18:20:07.611Z,80.23
2023-01-18T18:22:36.113Z,79.40
2023-01-18T18:25:04.783Z,79.60
2023-01-18T18:27:44.672Z,79.07
2023-01-18T18:30:15.996Z,84.50
2023-01-18T18:32:44.477Z,81.70
2023-01-18T18:35:25.506Z,80.73
2023-01-18T18:37:55.774Z,96.17
2023-01-18T18:40:25.391Z,93.97
2023-01-18T18:43:01.968Z,89.13
2023-01-18T18:45:33.507Z,85.27
2023-01-18T18:48:02.422Z,83.57
2023-01-18T18:50:32.049Z,82.00
2023-01-18T18:53:00.932Z,86.50
2023-01-18T18:55:29.651Z,83.53
2023-01-18T18:57:58.090Z,89.13
2023-01-18T19:00:27.553Z,76.43
2023-01-18T19:03:01.303Z,69.03
2023-01-18T19:05:31.167Z,64.90
2023-01-18T19:08:00.242Z,70.90
2023-01-18T19:10:30.586Z,67.33
2023-01-18T19:13:00.053Z,67.50
2023-01-18T19:15:28.990Z,63.53
2023-01-18T19:17:58.265Z,64.57
2023-01-18T19:20:33.159Z,61.07
2023-01-18T19:23:02.374Z,59.20
2023-01-18T19:25:31.745Z,58.30
2023-01-18T19:28:00.950Z,57.17
2023-01-18T19:30:31.549Z,57.67
2023-01-18T19:33:01.451Z,54.97
2023-01-18T19:35:31.590Z,51.73
2023-01-18T19:38:01.144Z,54.73
2023-01-18T19:40:29.672Z,56.10
2023-01-18T19:42:59.963Z,50.20
2023-01-18T19:45:29.816Z,48.33
2023-01-18T19:48:00.093Z,47.97
2023-01-18T19:50:31.161Z,44.60
2023-01-18T19:53:00.103Z,52.80
2023-01-18T19:55:28.887Z,45.03
2023-01-18T19:57:58.195Z,46.47
2023-01-18T20:00:27.392Z,46.70
2023-01-18T20:02:55.926Z,44.77
2023-01-18T20:05:25.184Z,43.80
2023-01-18T20:07:55.437Z,45.40
2023-01-18T20:10:24.303Z,43.73
2023-01-18T20:12:53.575Z,44.20
2023-01-18T20:15:23.541Z,41.27
2023-01-18T20:17:52.301Z,42.63
2023-01-18T20:20:31.913Z,44.27
2023-01-18T20:23:04.527Z,44.97
2023-01-18T20:25:34.802Z,43.80
2023-01-18T20:28:03.356Z,42.83
2023-01-18T20:30:32.500Z,43.73
2023-01-18T20:33:01.838Z,43.60
2023-01-18T20:35:30.839Z,43.63
2023-01-18T20:37:59.462Z,41.67
2023-01-18T20:40:29.893Z,42.03
2023-01-18T20:42:58.832Z,44.40
2023-01-18T20:45:27.792Z,46.50
2023-01-18T20:47:56.285Z,43.20
2023-01-18T20:50:25.709Z,45.07
2023-01-18T20:52:55.218Z,44.60
2023-01-18T20:55:24.197Z,181.77
2023-01-18T20:57:57.384Z,472.83
2023-01-18T21:00:26.018Z,210.73
2023-01-18T21:02:55.151Z,176.37
2023-01-18T21:05:24.034Z,64.07
2023-01-18T21:07:52.558Z,540.63
2023-01-18T21:10:21.158Z,357.27
2023-01-18T21:12:50.423Z,643.77
2023-01-18T21:15:20.687Z,671.40
2023-01-18T21:17:50.660Z,718.30
2023-01-18T21:20:19.256Z,168.00
2023-01-18T21:22:47.726Z,76.20
2023-01-18T21:25:16.905Z,55.90
2023-01-18T21:27:45.287Z,55.97
2023-01-18T21:30:15.687Z,56.13
2023-01-18T21:32:45.806Z,53.33
2023-01-18T21:35:14.874Z,48.97
2023-01-18T21:37:43.267Z,51.27
2023-01-18T21:40:12.886Z,51.30
2023-01-18T21:42:58.742Z,51.23
2023-01-18T21:45:44.407Z,47.97
2023-01-18T21:48:14.296Z,50.57
2023-01-18T21:51:00.137Z,47.13
2023-01-18T21:53:45.799Z,48.87
2023-01-18T21:56:14.261Z,47.57
2023-01-18T21:58:54.886Z,54.63
2023-01-18T22:01:24.911Z,53.43
2023-01-18T22:04:13.312Z,53.33
2023-01-18T22:06:42.595Z,57.23
2023-01-18T22:09:11.053Z,63.70
2023-01-18T22:11:39.498Z,54.67
2023-01-18T22:14:09.642Z,53.70
2023-01-18T22:16:38.676Z,55.57
2023-01-18T22:19:08.979Z,55.13
2023-01-18T22:21:37.429Z,56.43
2023-01-18T22:24:06.878Z,52.97
2023-01-18T22:26:36.552Z,55.60
2023-01-18T22:29:05.060Z,57.20
2023-01-18T22:31:33.489Z,52.17
2023-01-18T22:34:04.403Z,56.97
2023-01-18T22:36:34.926Z,59.40
2023-01-18T22:39:03.615Z,61.53
2023-01-18T22:41:32.068Z,54.57
2023-01-18T22:44:00.520Z,59.47
2023-01-18T22:46:28.991Z,49.67
2023-01-18T22:48:57.430Z,551.67
2023-01-18T22:51:25.828Z,242.27
2023-01-18T22:53:56.556Z,196.33
2023-01-18T22:56:26.842Z,481.03
2023-01-18T22:58:55.519Z,190.50
2023-01-18T23:01:26.665Z,93.43
2023-01-18T23:03:57.795Z,61.43
2023-01-18T23:06:28.174Z,58.33
2023-01-18T23:08:58.019Z,59.27
2023-01-18T23:11:28.335Z,55.23
2023-01-18T23:14:16.205Z,55.80
2023-01-18T23:17:02.645Z,55.90
2023-01-18T23:19:31.484Z,54.23
2023-01-18T23:21:59.939Z,275.50
2023-01-18T23:24:30.028Z,565.63
2023-01-18T23:26:58.446Z,465.60
2023-01-18T23:29:27.035Z,420.17
2023-01-18T23:31:57.325Z,658.27
2023-01-18T23:34:27.105Z,161.13
2023-01-18T23:36:56.443Z,74.40
2023-01-18T23:39:42.445Z,54.70
2023-01-18T23:42:29.577Z,55.13
2023-01-18T23:45:15.377Z,63.83
2023-01-18T23:48:01.495Z,66.77
2023-01-18T23:50:47.591Z,72.43
2023-01-18T23:53:33.430Z,67.20
2023-01-18T23:56:01.847Z,64.67
2023-01-18T23:58:31.789Z,56.60
